createdAt,value
2023-04-15T00:02:19.481Z,95957.88
2023-04-15T00:04:45.865Z,95954.41
2023-04-15T00:07:12.156Z,95951.22
2023-04-15T00:09:38.416Z,95957.09
2023-04-15T00:12:04.671Z,95952.00
2023-04-15T00:14:30.936Z,95961.38
2023-04-15T00:16:57.230Z,95955.75
2023-04-15T00:19:23.580Z,95953.63
2023-04-15T00:21:49.847Z,95959.22
2023-04-15T00:24:16.089Z,95953.09
2023-04-15T00:26:42.344Z,95956.53
2023-04-15T00:29:08.616Z,95958.13
2023-04-15T00:31:34.856Z,95956.00
2023-04-15T00:34:01.119Z,95955.44
2023-04-15T00:36:27.396Z,95955.44
2023-04-15T00:38:53.666Z,95958.13
2023-04-15T00:41:19.922Z,95954.00
2023-04-15T00:43:46.157Z,95961.16
2023-04-15T00:46:12.438Z,95969.19
2023-04-15T00:48:38.739Z,95965.19
2023-04-15T00:51:05.018Z,95957.44
2023-04-15T00:53:31.298Z,95965.69
2023-04-15T00:55:57.570Z,95951.00
2023-04-15T00:58:23.826Z,95948.09
2023-04-15T01:00:50.072Z,95950.53
2023-04-15T01:03:16.472Z,95944.91
2023-04-15T01:05:42.839Z,95947.84
2023-04-15T01:08:09.076Z,95942.00
2023-04-15T01:10:35.357Z,95944.94
2023-04-15T01:13:01.643Z,95940.41
2023-04-15T01:15:27.897Z,95947.09
2023-04-15T01:17:54.196Z,95950.03
2023-04-15T01:20:20.446Z,95944.44
2023-04-15T01:22:46.692Z,95950.06
2023-04-15T01:25:13.023Z,95950.31
2023-04-15T01:27:39.269Z,95946.06
2023-04-15T01:30:05.568Z,95946.59
2023-04-15T01:32:31.869Z,95943.38
2023-04-15T01:34:58.155Z,95945.22
2023-04-15T01:37:24.419Z,95950.03
2023-04-15T01:39:50.687Z,95943.38
2023-04-15T01:42:16.968Z,95942.59
2023-04-15T01:44:43.275Z,95945.25
2023-04-15T01:47:09.521Z,95937.25
2023-04-15T01:49:35.777Z,95942.59
2023-04-15T01:52:02.022Z,95938.06
2023-04-15T01:54:28.279Z,95934.56
2023-04-15T01:56:54.547Z,95934.31
2023-04-15T01:59:20.797Z,95936.44
2023-04-15T02:01:47.102Z,95931.91
2023-04-15T02:04:13.397Z,95943.13
2023-04-15T02:06:39.706Z,95934.31
2023-04-15T02:09:05.953Z,95937.50
2023-04-15T02:11:32.268Z,95930.03
2023-04-15T02:13:58.534Z,95933.00
2023-04-15T02:16:24.828Z,95934.88
2023-04-15T02:18:51.127Z,95932.72
2023-04-15T02:21:17.364Z,95930.84
2023-04-15T02:23:43.666Z,95927.41
2023-04-15T02:26:09.925Z,95933.56
2023-04-15T02:28:36.189Z,95929.00
2023-04-15T02:31:02.436Z,95917.25
2023-04-15T02:33:28.711Z,95922.34
2023-04-15T02:35:54.976Z,95924.75
2023-04-15T02:38:21.260Z,95918.88
2023-04-15T02:40:47.535Z,95926.34
2023-04-15T02:43:13.776Z,95923.13
2023-04-15T02:45:40.025Z,95929.28
2023-04-15T02:48:06.549Z,95928.47
2023-04-15T02:50:33.060Z,95922.88
2023-04-15T02:52:59.375Z,95925.00
2023-04-15T02:55:25.655Z,95915.41
2023-04-15T02:57:51.906Z,95926.88
2023-04-15T03:00:18.184Z,95921.28
2023-04-15T03:02:44.586Z,95926.88
2023-04-15T03:05:10.908Z,95921.81
2023-04-15T03:07:37.161Z,95923.91
2023-04-15T03:10:03.393Z,95917.75
2023-04-15T03:12:29.631Z,95920.72
2023-04-15T03:14:55.870Z,95914.28
2023-04-15T03:17:22.167Z,95924.69
2023-04-15T03:19:48.451Z,95917.47
2023-04-15T03:22:14.712Z,95921.75
2023-04-15T03:24:40.976Z,95914.53
2023-04-15T03:27:07.210Z,95912.69
2023-04-15T03:29:33.470Z,95913.75
2023-04-15T03:31:59.723Z,95911.91
2023-04-15T03:34:25.964Z,95911.06
2023-04-15T03:36:52.204Z,95910.53
2023-04-15T03:39:18.458Z,95907.31
2023-04-15T03:41:44.712Z,95914.53
2023-04-15T03:44:10.971Z,95907.06
2023-04-15T03:46:37.269Z,95904.66
2023-04-15T03:49:03.658Z,95920.41
2023-04-15T03:51:30.112Z,95915.59
2023-04-15T03:53:56.365Z,95908.91
2023-04-15T03:56:22.602Z,95911.06
2023-04-15T03:58:48.864Z,95914.00
2023-04-15T04:01:15.092Z,95915.59
2023-04-15T04:03:41.491Z,95918.56
2023-04-15T04:06:07.817Z,95907.34
2023-04-15T04:08:34.106Z,95916.41
2023-04-15T04:11:00.368Z,95917.75
2023-04-15T04:13:26.640Z,95916.13
2023-04-15T04:15:52.975Z,95910.53
2023-04-15T04:18:19.269Z,95914.25
2023-04-15T04:20:45.510Z,95907.84
2023-04-15T04:23:11.767Z,95919.59
2023-04-15T04:25:38.026Z,95917.47
2023-04-15T04:28:04.280Z,95908.94
2023-04-15T04:30:30.557Z,95913.19
2023-04-15T04:32:56.832Z,95912.41
2023-04-15T04:35:23.183Z,95910.25
2023-04-15T04:37:49.438Z,95921.75
2023-04-15T04:40:15.676Z,95914.53
2023-04-15T04:42:41.916Z,95911.59
2023-04-15T04:45:08.160Z,95902.78
2023-04-15T04:47:34.447Z,95900.91
2023-04-15T04:50:00.728Z,95903.59
2023-04-15T04:52:26.970Z,95901.19
2023-04-15T04:54:53.323Z,95899.31
2023-04-15T04:57:19.572Z,95898.50
2023-04-15T04:59:45.818Z,95898.78
2023-04-15T05:02:12.118Z,95894.25
2023-04-15T05:04:38.434Z,95888.09
2023-04-15T05:07:04.680Z,95902.25
2023-04-15T05:09:30.936Z,95891.03
2023-04-15T05:11:57.202Z,95903.31
2023-04-15T05:14:23.540Z,95900.13
2023-04-15T05:16:49.842Z,95899.31
2023-04-15T05:19:16.116Z,95903.59
2023-04-15T05:21:42.353Z,95905.19
2023-04-15T05:24:08.630Z,95902.78
2023-04-15T05:26:34.893Z,95899.59
2023-04-15T05:29:01.456Z,95882.75
2023-04-15T05:31:28.108Z,95883.31
2023-04-15T05:33:54.393Z,95885.72
2023-04-15T05:36:20.664Z,95893.44
2023-04-15T05:38:46.925Z,95890.25
2023-04-15T05:41:13.217Z,95893.97
2023-04-15T05:43:39.479Z,95904.94
2023-04-15T05:46:05.737Z,95904.66
2023-04-15T05:48:32.031Z,95901.19
2023-04-15T05:50:58.274Z,95900.13
2023-04-15T05:53:24.560Z,95896.66
2023-04-15T05:55:50.842Z,95910.00
2023-04-15T05:58:17.115Z,95911.88
2023-04-15T06:00:43.378Z,95912.41
2023-04-15T06:03:09.723Z,95912.66
2023-04-15T06:05:36.073Z,95906.00
2023-04-15T06:08:02.327Z,95909.47
2023-04-15T06:10:28.679Z,95916.66
2023-04-15T06:12:54.951Z,95916.38
2023-04-15T06:15:21.196Z,95927.06
2023-04-15T06:17:47.592Z,95926.50
2023-04-15T06:20:13.878Z,95927.84
2023-04-15T06:22:40.161Z,95933.97
2023-04-15T06:25:06.428Z,95929.44
2023-04-15T06:27:32.681Z,95922.50
2023-04-15T06:29:58.939Z,95927.56
2023-04-15T06:32:25.207Z,95924.09
2023-04-15T06:34:51.512Z,95923.56
2023-04-15T06:37:17.768Z,95927.06
2023-04-15T06:39:44.019Z,95921.97
2023-04-15T06:42:10.258Z,95924.63
2023-04-15T06:44:36.566Z,95928.91
2023-04-15T06:47:02.826Z,95936.63
2023-04-15T06:49:29.093Z,95935.03
2023-04-15T06:51:55.426Z,95929.16
2023-04-15T06:54:21.680Z,95939.28
2023-04-15T06:56:47.951Z,95943.56
2023-04-15T06:59:14.231Z,95943.31
2023-04-15T07:01:40.506Z,95940.88
2023-04-15T07:04:06.779Z,95932.59
2023-04-15T07:06:33.096Z,95931.81
2023-04-15T07:08:59.458Z,95933.13
2023-04-15T07:11:25.774Z,95934.75
2023-04-15T07:13:52.020Z,95924.88
2023-04-15T07:16:18.314Z,95934.22
2023-04-15T07:18:44.594Z,95933.97
2023-04-15T07:21:10.855Z,95927.53
2023-04-15T07:23:37.149Z,95933.41
2023-04-15T07:26:03.382Z,95936.59
2023-04-15T07:28:29.650Z,95929.13
2023-04-15T07:30:55.936Z,95934.22
2023-04-15T07:33:22.203Z,95933.97
2023-04-15T07:35:48.488Z,95934.75
2023-04-15T07:38:14.742Z,95936.59
2023-04-15T07:40:41.024Z,95933.16
2023-04-15T07:43:07.327Z,95931.56
2023-04-15T07:45:33.638Z,95939.56
2023-04-15T07:47:59.979Z,95938.50
2023-04-15T07:50:26.240Z,95937.72
2023-04-15T07:52:52.517Z,95940.41
2023-04-15T07:55:18.803Z,95943.59
2023-04-15T07:57:45.076Z,95936.91
2023-04-15T08:00:11.359Z,95939.56
2023-04-15T08:02:39.684Z,95936.13
2023-04-15T08:05:06.627Z,95939.88
2023-04-15T08:07:32.978Z,95944.16
2023-04-15T08:09:59.302Z,95940.16
2023-04-15T08:12:25.568Z,95936.69
2023-04-15T08:14:51.829Z,95939.09
2023-04-15T08:17:18.122Z,95944.44
2023-04-15T08:19:44.397Z,95950.59
2023-04-15T08:22:17.951Z,95948.75
2023-04-15T08:24:45.201Z,95952.47
2023-04-15T08:27:11.474Z,95954.13
2023-04-15T08:29:37.741Z,95954.38
2023-04-15T08:32:04.022Z,95958.13
2023-04-15T08:34:30.297Z,95959.75
2023-04-15T08:36:56.536Z,95958.41
2023-04-15T08:39:22.805Z,95963.22
2023-04-15T08:41:49.065Z,95956.53
2023-04-15T08:44:15.334Z,95965.63
2023-04-15T08:46:41.658Z,95966.97
2023-04-15T08:49:07.958Z,95969.38
2023-04-15T08:51:34.213Z,95969.13
2023-04-15T08:54:00.548Z,95973.94
2023-04-15T08:56:27.012Z,95976.59
2023-04-15T08:58:53.353Z,95990.78
2023-04-15T09:01:19.642Z,95993.69
2023-04-15T09:03:45.976Z,95994.47
2023-04-15T09:06:12.281Z,95997.72
2023-04-15T09:08:38.537Z,95993.97
2023-04-15T09:11:04.856Z,95999.31
2023-04-15T09:13:31.122Z,95998.75
2023-04-15T09:15:59.015Z,96002.50
2023-04-15T09:18:25.281Z,96002.25
2023-04-15T09:20:51.536Z,96000.91
2023-04-15T09:23:17.789Z,96002.25
2023-04-15T09:25:44.051Z,96014.81
2023-04-15T09:28:10.284Z,96016.41
2023-04-15T09:30:36.569Z,96019.34
2023-04-15T09:33:02.901Z,96025.25
2023-04-15T09:35:29.204Z,96026.03
2023-04-15T09:37:55.543Z,96030.84
2023-04-15T09:40:21.832Z,96034.84
2023-04-15T09:42:50.229Z,96036.72
2023-04-15T09:45:16.608Z,96043.16
2023-04-15T09:47:42.936Z,96043.16
2023-04-15T09:50:09.262Z,96049.03
2023-04-15T09:52:35.513Z,96049.03
2023-04-15T09:55:01.763Z,96061.31
2023-04-15T09:57:28.006Z,96060.50
2023-04-15T09:59:54.293Z,96069.34
2023-04-15T10:02:20.660Z,96058.13
2023-04-15T10:04:47.085Z,96066.13
2023-04-15T10:07:13.362Z,96059.19
2023-04-15T10:09:39.720Z,96073.63
2023-04-15T10:12:06.074Z,96081.09
2023-04-15T10:14:32.342Z,96081.91
2023-04-15T10:16:58.593Z,96081.91
2023-04-15T10:19:24.824Z,96093.41
2023-04-15T10:21:51.115Z,96089.13
2023-04-15T10:24:17.394Z,96088.06
2023-04-15T10:26:43.657Z,96092.34
2023-04-15T10:29:09.964Z,96095.28
2023-04-15T10:31:36.298Z,96112.38
2023-04-15T10:34:02.799Z,96093.88
2023-04-15T10:36:29.260Z,96097.38
2023-04-15T10:38:55.549Z,96096.81
2023-04-15T10:41:21.994Z,96105.94
2023-04-15T10:43:48.364Z,96098.97
2023-04-15T10:46:14.655Z,96098.16
2023-04-15T10:48:40.914Z,96105.91
2023-04-15T10:51:07.193Z,96101.63
2023-04-15T10:53:33.458Z,96105.91
2023-04-15T10:55:59.722Z,96111.22
2023-04-15T10:58:26.007Z,96117.63
2023-04-15T11:00:52.256Z,96114.94
2023-04-15T11:03:18.604Z,96120.00
2023-04-15T11:05:44.920Z,96124.59
2023-04-15T11:08:11.186Z,96124.28
2023-04-15T11:10:37.464Z,96131.28
2023-04-15T11:13:03.756Z,96133.38
2023-04-15T11:15:29.993Z,96136.34
2023-04-15T11:17:56.302Z,96139.28
2023-04-15T11:20:22.606Z,96140.13
2023-04-15T11:22:48.856Z,96147.06
2023-04-15T11:25:15.633Z,96148.66
2023-04-15T11:27:41.927Z,96159.31
2023-04-15T11:30:08.166Z,96152.59
2023-04-15T11:32:34.473Z,96145.41
2023-04-15T11:35:00.798Z,96162.84
2023-04-15T11:37:27.060Z,96154.81
2023-04-15T11:39:53.313Z,96159.63
2023-04-15T11:42:19.601Z,96158.03
2023-04-15T11:44:46.097Z,96167.06
2023-04-15T11:47:12.397Z,96162.00
2023-04-15T11:49:38.646Z,96182.03
2023-04-15T11:52:04.889Z,96169.97
2023-04-15T11:54:31.166Z,96172.91
2023-04-15T11:56:57.431Z,96177.78
2023-04-15T11:59:26.395Z,96174.59
2023-04-15T12:01:56.643Z,96180.44
2023-04-15T12:04:25.621Z,96187.66
2023-04-15T12:06:52.362Z,96183.94
2023-04-15T12:09:18.611Z,96190.88
2023-04-15T12:11:44.864Z,96197.09
2023-04-15T12:14:11.136Z,96201.09
2023-04-15T12:16:48.360Z,96203.75
2023-04-15T12:19:15.902Z,96204.84
2023-04-15T12:21:42.614Z,96205.63
2023-04-15T12:24:08.888Z,96215.78
2023-04-15T12:26:35.154Z,96217.41
2023-04-15T12:29:01.404Z,96221.25
2023-04-15T12:31:27.696Z,96224.25
2023-04-15T12:33:54.035Z,96226.66
2023-04-15T12:36:20.468Z,96237.09
2023-04-15T12:38:46.778Z,96233.59
2023-04-15T12:41:13.031Z,96233.56
2023-04-15T12:43:39.268Z,96234.94
2023-04-15T12:46:05.592Z,96247.22
2023-04-15T12:48:31.866Z,96241.09
2023-04-15T12:50:58.131Z,96251.25
2023-04-15T12:53:24.411Z,96244.56
2023-04-15T12:55:50.678Z,96249.38
2023-04-15T12:58:16.926Z,96256.59
2023-04-15T13:00:43.206Z,96255.28
2023-04-15T13:03:09.582Z,96257.16
2023-04-15T13:05:35.866Z,96260.63
2023-04-15T13:08:02.150Z,96269.72
2023-04-15T13:10:28.463Z,96270.25
2023-04-15T13:12:54.740Z,96271.31
2023-04-15T13:15:20.983Z,96275.88
2023-04-15T13:17:47.284Z,96279.09
2023-04-15T13:20:13.592Z,96284.44
2023-04-15T13:22:39.844Z,96284.16
2023-04-15T13:25:06.122Z,96290.34
2023-04-15T13:27:32.383Z,96287.69
2023-04-15T13:29:58.621Z,96296.00
2023-04-15T13:32:24.905Z,96299.22
2023-04-15T13:34:51.172Z,96293.00
2023-04-15T13:37:17.440Z,96301.56
2023-04-15T13:39:43.695Z,96304.81
2023-04-15T13:42:09.962Z,96309.13
2023-04-15T13:44:36.199Z,96311.00
2023-04-15T13:47:02.477Z,96309.94
2023-04-15T13:49:28.734Z,96310.50
2023-04-15T13:51:55.009Z,96314.00
2023-04-15T13:54:21.287Z,96314.53
2023-04-15T13:56:47.567Z,96318.81
2023-04-15T13:59:13.877Z,96324.44
2023-04-15T14:01:40.203Z,96316.16
2023-04-15T14:04:06.987Z,96321.53
2023-04-15T14:06:33.465Z,96325.53
2023-04-15T14:08:59.767Z,96334.63
2023-04-15T14:11:26.015Z,96340.72
2023-04-15T14:13:52.604Z,96328.94
2023-04-15T14:16:18.954Z,96339.09
2023-04-15T14:18:45.223Z,96350.34
2023-04-15T14:21:11.507Z,96346.06
2023-04-15T14:23:37.780Z,96345.81
2023-04-15T14:26:04.024Z,96356.53
2023-04-15T14:28:30.279Z,96354.13
2023-04-15T14:30:56.608Z,96355.44
2023-04-15T14:33:22.872Z,96356.53
2023-04-15T14:35:49.126Z,96356.28
2023-04-15T14:38:15.383Z,96363.78
2023-04-15T14:40:41.652Z,96364.31
2023-04-15T14:43:08.016Z,96362.72
2023-04-15T14:45:34.600Z,96372.88
2023-04-15T14:48:00.939Z,96373.13
2023-04-15T14:50:27.330Z,96378.75
2023-04-15T14:52:53.598Z,96379.81
2023-04-15T14:55:19.964Z,96388.91
2023-04-15T14:57:46.223Z,96383.28
2023-04-15T15:00:15.790Z,96388.94
2023-04-15T15:02:42.637Z,96388.94
2023-04-15T15:05:09.118Z,96394.28
2023-04-15T15:07:35.456Z,96403.94
2023-04-15T15:10:01.755Z,96400.47
2023-04-15T15:12:28.018Z,96411.16
2023-04-15T15:14:54.286Z,96408.50
2023-04-15T15:17:20.531Z,96413.31
2023-04-15T15:19:46.828Z,96408.75
2023-04-15T15:22:13.064Z,96417.31
2023-04-15T15:24:39.326Z,96417.84
2023-04-15T15:27:05.593Z,96418.41
2023-04-15T15:29:31.842Z,96423.50
2023-04-15T15:31:58.097Z,96429.38
2023-04-15T15:34:24.345Z,96431.53
2023-04-15T15:36:50.606Z,96439.00
2023-04-15T15:39:16.864Z,96445.16
2023-04-15T15:41:43.125Z,96446.22
2023-04-15T15:44:09.372Z,96452.09
2023-04-15T15:46:35.803Z,96450.22
2023-04-15T15:49:02.290Z,96455.84
2023-04-15T15:51:28.738Z,96460.13
2023-04-15T15:53:54.970Z,96462.53
2023-04-15T15:56:21.222Z,96464.94
2023-04-15T15:58:47.483Z,96467.63
2023-04-15T16:01:13.778Z,96472.44
2023-04-15T16:03:40.247Z,96471.34
2023-04-15T16:06:06.652Z,96477.00
2023-04-15T16:08:32.885Z,96481.84
2023-04-15T16:10:59.134Z,96488.78
2023-04-15T16:13:25.404Z,96493.59
2023-04-15T16:15:51.691Z,96492.25
2023-04-15T16:18:17.965Z,96494.41
2023-04-15T16:20:44.225Z,96498.13
2023-04-15T16:23:10.544Z,96498.63
2023-04-15T16:25:36.865Z,96506.66
2023-04-15T16:28:11.539Z,96508.00
2023-04-15T16:30:41.204Z,96514.69
2023-04-15T16:33:07.570Z,96518.19
2023-04-15T16:35:34.732Z,96518.44
2023-04-15T16:38:01.195Z,96525.66
2023-04-15T16:40:27.475Z,96530.47
2023-04-15T16:42:53.741Z,96538.22
2023-04-15T16:45:19.988Z,96544.09
2023-04-15T16:47:46.232Z,96546.78
2023-04-15T16:50:12.517Z,96555.59
2023-04-15T16:52:38.789Z,96555.06
2023-04-15T16:55:05.071Z,96568.44
2023-04-15T16:57:58.811Z,96567.09
2023-04-15T17:00:17.565Z,96569.50
2023-04-15T17:02:44.033Z,96574.25
2023-04-15T17:05:10.519Z,96587.91
2023-04-15T17:07:36.770Z,96594.56
2023-04-15T17:10:03.023Z,96598.03
2023-04-15T17:12:29.269Z,96592.13
2023-04-15T17:14:55.538Z,96592.69
2023-04-15T17:17:21.847Z,96590.81
2023-04-15T17:19:48.107Z,96594.81
2023-04-15T17:22:14.413Z,96599.63
2023-04-15T17:24:40.676Z,96602.28
2023-04-15T17:27:06.930Z,96606.03
2023-04-15T17:29:33.180Z,96599.88
2023-04-15T17:31:59.456Z,96598.25
2023-04-15T17:34:25.728Z,96602.81
2023-04-15T17:37:11.965Z,96612.94
2023-04-15T17:39:38.251Z,96616.19
2023-04-15T17:42:04.516Z,96627.94
2023-04-15T17:44:30.789Z,96647.72
2023-04-15T17:46:57.195Z,96658.94
2023-04-15T17:49:23.551Z,96662.41
2023-04-15T17:51:49.802Z,96667.22
2023-04-15T17:54:16.129Z,96675.78
2023-04-15T17:56:42.377Z,96674.97
2023-04-15T17:59:08.645Z,96673.31
2023-04-15T18:01:34.904Z,96674.38
2023-04-15T18:04:01.389Z,96677.59
2023-04-15T18:06:27.753Z,96681.34
2023-04-15T18:08:53.998Z,96684.25
2023-04-15T18:11:20.251Z,96686.13
2023-04-15T18:13:46.499Z,96679.41
2023-04-15T18:16:12.834Z,96696.28
2023-04-15T18:18:39.103Z,96704.81
2023-04-15T18:21:05.355Z,96701.31
2023-04-15T18:23:31.614Z,96717.63
2023-04-15T18:25:57.850Z,96724.03
2023-04-15T18:28:24.276Z,96724.53
2023-04-15T18:30:50.549Z,96732.78
2023-04-15T18:33:16.794Z,96730.06
2023-04-15T18:35:43.084Z,96733.28
2023-04-15T18:38:09.362Z,96737.28
2023-04-15T18:40:35.615Z,96739.38
2023-04-15T18:43:01.946Z,96735.66
2023-04-15T18:45:28.311Z,96742.75
2023-04-15T18:47:54.648Z,96752.63
2023-04-15T18:50:20.969Z,96757.47
2023-04-15T18:52:47.243Z,96770.84
2023-04-15T18:55:13.512Z,96778.63
2023-04-15T18:57:39.757Z,96785.03
2023-04-15T19:00:06.309Z,96782.59
2023-04-15T19:02:32.759Z,96786.31
2023-04-15T19:04:59.144Z,96794.91
2023-04-15T19:07:25.422Z,96799.75
2023-04-15T19:09:51.945Z,96804.53
2023-04-15T19:12:18.248Z,96802.38
2023-04-15T19:14:44.528Z,96809.31
2023-04-15T19:17:10.846Z,96806.34
2023-04-15T19:19:37.106Z,96814.59
2023-04-15T19:22:03.493Z,96816.72
2023-04-15T19:24:31.683Z,96817.78
2023-04-15T19:26:59.167Z,96818.00
2023-04-15T19:29:25.461Z,96822.31
2023-04-15T19:31:51.764Z,96819.38
2023-04-15T19:34:18.031Z,96825.53
2023-04-15T19:36:44.383Z,96835.44
2023-04-15T19:39:10.656Z,96832.19
2023-04-15T19:41:36.924Z,96831.69
2023-04-15T19:44:03.205Z,96841.03
2023-04-15T19:46:29.530Z,96842.41
2023-04-15T19:48:55.822Z,96840.78
2023-04-15T19:51:22.083Z,96842.16
2023-04-15T19:53:48.350Z,96850.16
2023-04-15T19:56:14.624Z,96853.09
2023-04-15T19:58:40.903Z,96861.59
2023-04-15T20:01:07.220Z,96864.28
2023-04-15T20:03:33.665Z,96865.00
2023-04-15T20:05:59.986Z,96866.56
2023-04-15T20:08:26.225Z,96868.69
2023-04-15T20:10:52.473Z,96868.94
2023-04-15T20:13:18.761Z,96870.78
2023-04-15T20:15:45.176Z,96861.41
2023-04-15T20:18:11.498Z,96866.97
2023-04-15T20:20:37.781Z,96865.38
2023-04-15T20:23:04.051Z,96868.03
2023-04-15T20:25:30.399Z,96867.53
2023-04-15T20:27:56.701Z,96866.75
2023-04-15T20:30:22.971Z,96862.38
2023-04-15T20:32:49.266Z,96865.28
2023-04-15T20:35:15.534Z,96866.34
2023-04-15T20:37:41.811Z,96865.78
2023-04-15T20:40:08.095Z,96868.94
2023-04-15T20:42:34.418Z,96860.09
2023-04-15T20:45:00.709Z,96870.47
2023-04-15T20:47:27.065Z,96870.22
2023-04-15T20:49:53.364Z,96878.47
2023-04-15T20:52:19.629Z,96879.84
2023-04-15T20:54:45.896Z,96875.00
2023-04-15T20:57:12.265Z,96884.06
2023-04-15T20:59:38.528Z,96880.81
2023-04-15T21:02:04.919Z,96884.31
2023-04-15T21:04:31.296Z,96890.69
2023-04-15T21:06:58.678Z,96893.63
2023-04-15T21:09:24.972Z,96897.34
2023-04-15T21:14:20.431Z,96901.88
2023-04-15T21:16:46.785Z,96906.75
2023-04-15T21:19:13.173Z,96905.16
2023-04-15T21:21:39.448Z,96901.66
2023-04-15T21:24:05.717Z,96914.94
2023-04-15T21:26:31.976Z,96917.84
2023-04-15T21:28:58.242Z,96915.31
2023-04-15T21:31:24.509Z,96914.88
2023-04-15T21:33:50.827Z,96920.22
2023-04-15T21:36:17.096Z,96910.50
2023-04-15T21:38:43.343Z,96913.50
2023-04-15T21:41:09.612Z,96916.03
2023-04-15T21:43:35.866Z,96919.75
2023-04-15T21:46:23.613Z,96909.63
2023-04-15T21:48:48.368Z,96910.22
2023-04-15T21:51:14.638Z,96915.31
2023-04-15T21:53:40.913Z,96921.47
2023-04-15T21:56:07.188Z,96919.84
2023-04-15T21:58:33.457Z,96925.41
2023-04-15T22:00:59.870Z,96918.22
2023-04-15T22:03:26.409Z,96926.81
2023-04-15T22:05:52.793Z,96931.91
2023-04-15T22:08:19.059Z,96929.00
2023-04-15T22:10:45.347Z,96933.53
2023-04-15T22:13:11.608Z,96938.63
2023-04-15T22:15:37.857Z,96932.25
2023-04-15T22:18:04.265Z,96940.25
2023-04-15T22:20:30.553Z,96934.09
2023-04-15T22:22:56.813Z,96926.09
2023-04-15T22:25:23.088Z,96935.72
2023-04-15T22:27:49.348Z,96936.78
2023-04-15T22:30:15.620Z,96937.59
2023-04-15T22:32:41.912Z,96946.16
2023-04-15T22:35:08.220Z,96948.25
2023-04-15T22:37:34.497Z,96948.50
2023-04-15T22:40:00.772Z,96951.16
2023-04-15T22:42:27.026Z,96952.47
2023-04-15T22:44:53.301Z,96957.81
2023-04-15T22:47:19.610Z,96963.94
2023-04-15T22:49:45.938Z,96961.75
2023-04-15T22:52:17.198Z,96960.38
2023-04-15T22:54:49.980Z,96955.50
2023-04-15T22:57:16.230Z,96961.44
2023-04-15T22:59:42.507Z,96970.38
2023-04-15T23:02:08.985Z,96970.38
2023-04-15T23:04:35.397Z,96976.19
2023-04-15T23:07:01.910Z,96973.44
2023-04-15T23:09:28.237Z,96976.66
2023-04-15T23:11:54.500Z,96976.56
2023-04-15T23:14:20.768Z,96972.28
2023-04-15T23:16:47.042Z,96972.28
2023-04-15T23:19:13.311Z,96973.81
2023-04-15T23:21:39.662Z,96974.28
2023-04-15T23:24:05.913Z,96986.00
2023-04-15T23:26:32.164Z,96982.75
2023-04-15T23:28:58.456Z,96985.88
2023-04-15T23:31:24.759Z,96992.03
2023-04-15T23:33:51.047Z,96986.69
2023-04-15T23:36:17.328Z,96991.47
2023-04-15T23:38:43.581Z,96998.88
2023-04-15T23:41:09.830Z,97002.13
2023-04-15T23:43:36.121Z,97007.81
2023-04-15T23:46:02.391Z,97005.38
2023-04-15T23:48:28.645Z,97001.31
2023-04-15T23:50:54.935Z,97003.41
2023-04-15T23:53:21.202Z,97011.66
2023-04-15T23:55:47.481Z,97011.06
2023-04-15T23:58:13.748Z,97004.94
